sensor_id;sensor_type;location;lat;lon;timestamp;P1;durP1;ratioP1;P2;durP2;ratioP2
12316;SDS011;6222;50.866;6.744;2022-09-11T00:00:41;9.38;;;6.68;;
12316;SDS011;6222;50.866;6.744;2022-09-11T00:03:08;9.48;;;6.78;;
12316;SDS011;6222;50.866;6.744;2022-09-11T00:05:39;6.90;;;6.20;;
12316;SDS011;6222;50.866;6.744;2022-09-11T00:08:07;9.80;;;7.03;;
12316;SDS011;6222;50.866;6.744;2022-09-11T00:10:36;9.48;;;6.70;;
12316;SDS011;6222;50.866;6.744;2022-09-11T00:13:04;6.55;;;5.88;;
12316;SDS011;6222;50.866;6.744;2022-09-11T00:15:34;9.30;;;6.40;;
12316;SDS011;6222;50.866;6.744;2022-09-11T00:18:02;8.37;;;6.40;;
12316;SDS011;6222;50.866;6.744;2022-09-11T00:20:29;8.77;;;6.65;;
12316;SDS011;6222;50.866;6.744;2022-09-11T00:22:59;10.35;;;7.05;;
12316;SDS011;6222;50.866;6.744;2022-09-11T00:25:29;8.55;;;7.03;;
12316;SDS011;6222;50.866;6.744;2022-09-11T00:27:56;9.02;;;7.20;;
12316;SDS011;6222;50.866;6.744;2022-09-11T00:30:23;8.98;;;7.38;;
12316;SDS011;6222;50.866;6.744;2022-09-11T00:32:50;10.13;;;7.70;;
12316;SDS011;6222;50.866;6.744;2022-09-11T00:35:17;11.40;;;8.52;;
12316;SDS011;6222;50.866;6.744;2022-09-11T00:37:44;10.02;;;7.72;;
12316;SDS011;6222;50.866;6.744;2022-09-11T00:40:14;11.40;;;8.53;;
12316;SDS011;6222;50.866;6.744;2022-09-11T00:42:41;11.80;;;8.75;;
12316;SDS011;6222;50.866;6.744;2022-09-11T00:45:15;12.20;;;9.57;;
12316;SDS011;6222;50.866;6.744;2022-09-11T00:47:42;12.45;;;9.90;;
12316;SDS011;6222;50.866;6.744;2022-09-11T00:50:11;10.43;;;8.85;;
12316;SDS011;6222;50.866;6.744;2022-09-11T00:52:40;11.32;;;9.50;;
12316;SDS011;6222;50.866;6.744;2022-09-11T00:55:09;11.02;;;9.10;;
12316;SDS011;6222;50.866;6.744;2022-09-11T00:57:40;10.52;;;8.82;;
12316;SDS011;6222;50.866;6.744;2022-09-11T01:00:10;11.10;;;9.27;;
12316;SDS011;6222;50.866;6.744;2022-09-11T01:02:37;11.68;;;9.32;;
12316;SDS011;6222;50.866;6.744;2022-09-11T01:05:07;12.65;;;9.65;;
12316;SDS011;6222;50.866;6.744;2022-09-11T01:07:34;12.65;;;9.70;;
12316;SDS011;6222;50.866;6.744;2022-09-11T01:10:02;11.88;;;9.75;;
12316;SDS011;6222;50.866;6.744;2022-09-11T01:12:33;11.80;;;9.80;;
12316;SDS011;6222;50.866;6.744;2022-09-11T01:15:04;11.90;;;9.93;;
12316;SDS011;6222;50.866;6.744;2022-09-11T01:17:34;12.55;;;10.30;;
12316;SDS011;6222;50.866;6.744;2022-09-11T01:20:20;13.37;;;10.63;;
12316;SDS011;6222;50.866;6.744;2022-09-11T01:22:56;14.70;;;11.48;;
12316;SDS011;6222;50.866;6.744;2022-09-11T01:25:30;16.58;;;12.45;;
12316;SDS011;6222;50.866;6.744;2022-09-11T01:27:59;16.13;;;13.30;;
12316;SDS011;6222;50.866;6.744;2022-09-11T01:30:27;17.73;;;13.47;;
12316;SDS011;6222;50.866;6.744;2022-09-11T01:33:06;16.23;;;13.52;;
12316;SDS011;6222;50.866;6.744;2022-09-11T01:35:49;18.05;;;13.50;;
12316;SDS011;6222;50.866;6.744;2022-09-11T01:38:17;16.98;;;13.63;;
12316;SDS011;6222;50.866;6.744;2022-09-11T01:40:48;19.95;;;15.07;;
12316;SDS011;6222;50.866;6.744;2022-09-11T01:43:19;16.52;;;13.48;;
12316;SDS011;6222;50.866;6.744;2022-09-11T01:45:48;18.20;;;14.55;;
12316;SDS011;6222;50.866;6.744;2022-09-11T01:48:18;18.27;;;13.95;;
12316;SDS011;6222;50.866;6.744;2022-09-11T01:50:46;18.73;;;13.77;;
12316;SDS011;6222;50.866;6.744;2022-09-11T01:53:15;18.70;;;14.23;;
12316;SDS011;6222;50.866;6.744;2022-09-11T01:55:43;18.67;;;14.00;;
12316;SDS011;6222;50.866;6.744;2022-09-11T01:58:13;18.60;;;14.13;;
12316;SDS011;6222;50.866;6.744;2022-09-11T02:00:44;17.55;;;13.60;;
12316;SDS011;6222;50.866;6.744;2022-09-11T02:03:15;19.25;;;14.13;;
12316;SDS011;6222;50.866;6.744;2022-09-11T02:05:44;18.02;;;14.07;;
12316;SDS011;6222;50.866;6.744;2022-09-11T02:08:14;19.88;;;14.77;;
12316;SDS011;6222;50.866;6.744;2022-09-11T02:10:44;17.30;;;13.82;;
12316;SDS011;6222;50.866;6.744;2022-09-11T02:13:13;21.42;;;15.27;;
12316;SDS011;6222;50.866;6.744;2022-09-11T02:15:41;19.27;;;14.02;;
12316;SDS011;6222;50.866;6.744;2022-09-11T02:18:14;19.73;;;15.03;;
12316;SDS011;6222;50.866;6.744;2022-09-11T02:20:42;18.98;;;14.35;;
12316;SDS011;6222;50.866;6.744;2022-09-11T02:23:11;20.88;;;15.68;;
12316;SDS011;6222;50.866;6.744;2022-09-11T02:25:38;18.95;;;15.45;;
12316;SDS011;6222;50.866;6.744;2022-09-11T02:28:06;21.88;;;15.90;;
12316;SDS011;6222;50.866;6.744;2022-09-11T02:30:33;21.80;;;16.23;;
12316;SDS011;6222;50.866;6.744;2022-09-11T02:33:00;20.52;;;15.70;;
12316;SDS011;6222;50.866;6.744;2022-09-11T02:35:30;23.90;;;17.30;;
12316;SDS011;6222;50.866;6.744;2022-09-11T02:38:00;22.38;;;16.63;;
12316;SDS011;6222;50.866;6.744;2022-09-11T02:40:34;23.77;;;17.13;;
12316;SDS011;6222;50.866;6.744;2022-09-11T02:43:09;23.17;;;17.23;;
12316;SDS011;6222;50.866;6.744;2022-09-11T02:45:42;22.17;;;17.17;;
12316;SDS011;6222;50.866;6.744;2022-09-11T02:48:24;23.47;;;17.53;;
12316;SDS011;6222;50.866;6.744;2022-09-11T02:50:57;23.35;;;16.88;;
12316;SDS011;6222;50.866;6.744;2022-09-11T02:53:26;26.02;;;18.55;;
12316;SDS011;6222;50.866;6.744;2022-09-11T02:55:56;25.97;;;18.27;;
12316;SDS011;6222;50.866;6.744;2022-09-11T02:58:26;23.20;;;17.65;;
12316;SDS011;6222;50.866;6.744;2022-09-11T03:00:56;25.15;;;18.33;;
12316;SDS011;6222;50.866;6.744;2022-09-11T03:03:24;23.20;;;17.67;;
12316;SDS011;6222;50.866;6.744;2022-09-11T03:05:51;26.17;;;18.33;;
12316;SDS011;6222;50.866;6.744;2022-09-11T03:08:19;26.42;;;17.98;;
12316;SDS011;6222;50.866;6.744;2022-09-11T03:10:46;23.10;;;17.15;;
12316;SDS011;6222;50.866;6.744;2022-09-11T03:13:14;22.55;;;17.92;;
12316;SDS011;6222;50.866;6.744;2022-09-11T03:15:41;22.30;;;17.67;;
12316;SDS011;6222;50.866;6.744;2022-09-11T03:18:08;25.98;;;19.35;;
12316;SDS011;6222;50.866;6.744;2022-09-11T03:20:35;26.15;;;19.55;;
12316;SDS011;6222;50.866;6.744;2022-09-11T03:23:02;27.08;;;19.67;;
12316;SDS011;6222;50.866;6.744;2022-09-11T03:25:36;26.10;;;19.77;;
12316;SDS011;6222;50.866;6.744;2022-09-11T03:28:03;27.70;;;20.17;;
12316;SDS011;6222;50.866;6.744;2022-09-11T03:30:31;28.83;;;20.77;;
12316;SDS011;6222;50.866;6.744;2022-09-11T03:32:58;28.57;;;20.93;;
12316;SDS011;6222;50.866;6.744;2022-09-11T03:35:25;27.13;;;19.67;;
12316;SDS011;6222;50.866;6.744;2022-09-11T03:37:52;27.98;;;20.52;;
12316;SDS011;6222;50.866;6.744;2022-09-11T03:40:21;28.50;;;20.63;;
12316;SDS011;6222;50.866;6.744;2022-09-11T03:42:49;28.77;;;20.67;;
12316;SDS011;6222;50.866;6.744;2022-09-11T03:45:17;27.45;;;20.65;;
12316;SDS011;6222;50.866;6.744;2022-09-11T03:47:45;29.15;;;20.27;;
12316;SDS011;6222;50.866;6.744;2022-09-11T03:50:12;28.70;;;20.65;;
12316;SDS011;6222;50.866;6.744;2022-09-11T03:52:39;29.25;;;20.77;;
12316;SDS011;6222;50.866;6.744;2022-09-11T03:55:07;28.50;;;20.90;;
12316;SDS011;6222;50.866;6.744;2022-09-11T03:57:35;29.95;;;21.02;;
12316;SDS011;6222;50.866;6.744;2022-09-11T04:00:04;28.80;;;20.13;;
12316;SDS011;6222;50.866;6.744;2022-09-11T04:02:32;27.95;;;20.23;;
12316;SDS011;6222;50.866;6.744;2022-09-11T04:04:59;28.52;;;19.73;;
12316;SDS011;6222;50.866;6.744;2022-09-11T04:07:27;26.35;;;18.73;;
12316;SDS011;6222;50.866;6.744;2022-09-11T04:09:55;26.38;;;19.23;;
12316;SDS011;6222;50.866;6.744;2022-09-11T04:12:22;26.73;;;19.48;;
12316;SDS011;6222;50.866;6.744;2022-09-11T04:14:49;27.17;;;20.00;;
12316;SDS011;6222;50.866;6.744;2022-09-11T04:17:18;27.07;;;20.10;;
12316;SDS011;6222;50.866;6.744;2022-09-11T04:19:45;26.05;;;19.75;;
12316;SDS011;6222;50.866;6.744;2022-09-11T04:22:12;28.53;;;18.60;;
12316;SDS011;6222;50.866;6.744;2022-09-11T04:24:39;26.55;;;18.88;;
12316;SDS011;6222;50.866;6.744;2022-09-11T04:27:06;25.60;;;18.38;;
12316;SDS011;6222;50.866;6.744;2022-09-11T04:29:33;24.13;;;18.13;;
12316;SDS011;6222;50.866;6.744;2022-09-11T04:32:00;25.50;;;17.77;;
12316;SDS011;6222;50.866;6.744;2022-09-11T04:34:29;24.25;;;17.55;;
12316;SDS011;6222;50.866;6.744;2022-09-11T04:36:56;24.13;;;17.13;;
12316;SDS011;6222;50.866;6.744;2022-09-11T04:39:23;23.45;;;16.17;;
12316;SDS011;6222;50.866;6.744;2022-09-11T04:41:50;23.73;;;16.42;;
12316;SDS011;6222;50.866;6.744;2022-09-11T04:44:18;23.50;;;16.38;;
12316;SDS011;6222;50.866;6.744;2022-09-11T04:46:45;24.97;;;17.07;;
12316;SDS011;6222;50.866;6.744;2022-09-11T04:49:12;24.25;;;17.00;;
12316;SDS011;6222;50.866;6.744;2022-09-11T04:51:41;24.40;;;17.13;;
12316;SDS011;6222;50.866;6.744;2022-09-11T04:54:09;24.08;;;16.55;;
12316;SDS011;6222;50.866;6.744;2022-09-11T04:56:38;25.90;;;17.95;;
12316;SDS011;6222;50.866;6.744;2022-09-11T04:59:06;24.02;;;17.67;;
12316;SDS011;6222;50.866;6.744;2022-09-11T05:01:37;24.20;;;17.52;;
12316;SDS011;6222;50.866;6.744;2022-09-11T05:04:04;24.75;;;17.70;;
12316;SDS011;6222;50.866;6.744;2022-09-11T05:06:32;25.80;;;17.75;;
12316;SDS011;6222;50.866;6.744;2022-09-11T05:09:01;26.13;;;18.27;;
12316;SDS011;6222;50.866;6.744;2022-09-11T05:11:29;27.23;;;18.02;;
12316;SDS011;6222;50.866;6.744;2022-09-11T05:13:56;24.08;;;16.95;;
12316;SDS011;6222;50.866;6.744;2022-09-11T05:16:24;26.83;;;18.40;;
12316;SDS011;6222;50.866;6.744;2022-09-11T05:18:52;26.40;;;18.50;;
12316;SDS011;6222;50.866;6.744;2022-09-11T05:21:20;28.27;;;19.20;;
12316;SDS011;6222;50.866;6.744;2022-09-11T05:23:48;25.10;;;18.17;;
12316;SDS011;6222;50.866;6.744;2022-09-11T05:26:20;27.30;;;18.80;;
12316;SDS011;6222;50.866;6.744;2022-09-11T05:28:51;28.67;;;19.13;;
12316;SDS011;6222;50.866;6.744;2022-09-11T05:31:18;30.30;;;20.00;;
12316;SDS011;6222;50.866;6.744;2022-09-11T05:33:46;29.92;;;20.20;;
12316;SDS011;6222;50.866;6.744;2022-09-11T05:36:13;31.80;;;21.17;;
12316;SDS011;6222;50.866;6.744;2022-09-11T05:38:41;31.63;;;21.43;;
12316;SDS011;6222;50.866;6.744;2022-09-11T05:41:08;32.85;;;22.00;;
12316;SDS011;6222;50.866;6.744;2022-09-11T05:43:37;33.97;;;22.50;;
12316;SDS011;6222;50.866;6.744;2022-09-11T05:46:05;34.17;;;21.77;;
12316;SDS011;6222;50.866;6.744;2022-09-11T05:48:33;32.92;;;21.38;;
12316;SDS011;6222;50.866;6.744;2022-09-11T05:51:03;33.38;;;21.85;;
12316;SDS011;6222;50.866;6.744;2022-09-11T05:53:32;34.72;;;21.90;;
12316;SDS011;6222;50.866;6.744;2022-09-11T05:56:04;33.70;;;22.13;;
12316;SDS011;6222;50.866;6.744;2022-09-11T05:58:31;32.67;;;21.95;;
12316;SDS011;6222;50.866;6.744;2022-09-11T06:01:02;36.53;;;22.90;;
12316;SDS011;6222;50.866;6.744;2022-09-11T06:03:30;35.92;;;22.63;;
12316;SDS011;6222;50.866;6.744;2022-09-11T06:05:58;32.88;;;22.10;;
12316;SDS011;6222;50.866;6.744;2022-09-11T06:08:25;34.45;;;22.50;;
12316;SDS011;6222;50.866;6.744;2022-09-11T06:10:52;35.63;;;22.87;;
12316;SDS011;6222;50.866;6.744;2022-09-11T06:13:19;34.33;;;21.40;;
12316;SDS011;6222;50.866;6.744;2022-09-11T06:15:46;33.90;;;22.08;;
12316;SDS011;6222;50.866;6.744;2022-09-11T06:18:15;33.87;;;21.50;;
12316;SDS011;6222;50.866;6.744;2022-09-11T06:20:42;32.47;;;20.98;;
12316;SDS011;6222;50.866;6.744;2022-09-11T06:23:10;33.95;;;21.83;;
12316;SDS011;6222;50.866;6.744;2022-09-11T06:25:37;34.28;;;22.00;;
12316;SDS011;6222;50.866;6.744;2022-09-11T06:28:04;35.20;;;22.23;;
12316;SDS011;6222;50.866;6.744;2022-09-11T06:30:31;32.65;;;20.67;;
12316;SDS011;6222;50.866;6.744;2022-09-11T06:32:59;32.03;;;20.10;;
12316;SDS011;6222;50.866;6.744;2022-09-11T06:35:27;32.10;;;20.05;;
12316;SDS011;6222;50.866;6.744;2022-09-11T06:37:54;28.50;;;20.00;;
12316;SDS011;6222;50.866;6.744;2022-09-11T06:40:21;31.25;;;20.30;;
12316;SDS011;6222;50.866;6.744;2022-09-11T06:42:49;28.57;;;19.07;;
12316;SDS011;6222;50.866;6.744;2022-09-11T06:45:16;30.52;;;20.02;;
12316;SDS011;6222;50.866;6.744;2022-09-11T06:47:43;31.77;;;20.73;;
12316;SDS011;6222;50.866;6.744;2022-09-11T06:50:11;30.80;;;20.40;;
12316;SDS011;6222;50.866;6.744;2022-09-11T06:52:39;28.63;;;20.30;;
12316;SDS011;6222;50.866;6.744;2022-09-11T06:55:07;29.23;;;20.17;;
12316;SDS011;6222;50.866;6.744;2022-09-11T06:57:37;32.75;;;20.90;;
12316;SDS011;6222;50.866;6.744;2022-09-11T07:00:06;31.20;;;20.37;;
12316;SDS011;6222;50.866;6.744;2022-09-11T07:02:34;33.25;;;21.42;;
12316;SDS011;6222;50.866;6.744;2022-09-11T07:05:01;33.25;;;20.77;;
12316;SDS011;6222;50.866;6.744;2022-09-11T07:07:28;34.97;;;21.77;;
12316;SDS011;6222;50.866;6.744;2022-09-11T07:09:56;35.43;;;22.50;;
12316;SDS011;6222;50.866;6.744;2022-09-11T07:12:27;34.25;;;22.20;;
12316;SDS011;6222;50.866;6.744;2022-09-11T07:14:56;37.22;;;23.38;;
12316;SDS011;6222;50.866;6.744;2022-09-11T07:17:23;34.80;;;22.33;;
12316;SDS011;6222;50.866;6.744;2022-09-11T07:19:50;36.60;;;22.60;;
12316;SDS011;6222;50.866;6.744;2022-09-11T07:22:17;36.28;;;22.30;;
12316;SDS011;6222;50.866;6.744;2022-09-11T07:24:46;36.63;;;22.90;;
12316;SDS011;6222;50.866;6.744;2022-09-11T07:27:14;36.20;;;22.58;;
12316;SDS011;6222;50.866;6.744;2022-09-11T07:29:42;37.30;;;22.55;;
12316;SDS011;6222;50.866;6.744;2022-09-11T07:32:09;35.53;;;22.23;;
12316;SDS011;6222;50.866;6.744;2022-09-11T07:34:36;33.90;;;21.75;;
12316;SDS011;6222;50.866;6.744;2022-09-11T07:37:03;34.57;;;23.10;;
12316;SDS011;6222;50.866;6.744;2022-09-11T07:39:30;36.78;;;22.65;;
12316;SDS011;6222;50.866;6.744;2022-09-11T07:41:57;38.03;;;22.40;;
12316;SDS011;6222;50.866;6.744;2022-09-11T07:44:26;31.47;;;20.17;;
12316;SDS011;6222;50.866;6.744;2022-09-11T07:46:53;30.65;;;20.67;;
12316;SDS011;6222;50.866;6.744;2022-09-11T07:49:20;30.13;;;19.97;;
12316;SDS011;6222;50.866;6.744;2022-09-11T07:51:47;28.70;;;18.38;;
12316;SDS011;6222;50.866;6.744;2022-09-11T07:54:16;26.95;;;18.35;;
12316;SDS011;6222;50.866;6.744;2022-09-11T07:56:43;27.67;;;18.15;;
12316;SDS011;6222;50.866;6.744;2022-09-11T07:59:10;27.73;;;18.27;;
12316;SDS011;6222;50.866;6.744;2022-09-11T08:01:39;27.13;;;18.17;;
12316;SDS011;6222;50.866;6.744;2022-09-11T08:04:08;24.73;;;16.87;;
12316;SDS011;6222;50.866;6.744;2022-09-11T08:06:36;25.40;;;17.27;;
12316;SDS011;6222;50.866;6.744;2022-09-11T08:09:04;25.13;;;16.93;;
12316;SDS011;6222;50.866;6.744;2022-09-11T08:11:35;25.42;;;16.50;;
12316;SDS011;6222;50.866;6.744;2022-09-11T08:14:02;25.17;;;17.17;;
12316;SDS011;6222;50.866;6.744;2022-09-11T08:16:31;25.23;;;16.30;;
12316;SDS011;6222;50.866;6.744;2022-09-11T08:19:01;23.92;;;16.58;;
12316;SDS011;6222;50.866;6.744;2022-09-11T08:21:29;25.05;;;16.55;;
12316;SDS011;6222;50.866;6.744;2022-09-11T08:23:56;22.90;;;16.70;;
12316;SDS011;6222;50.866;6.744;2022-09-11T08:26:24;25.47;;;17.37;;
12316;SDS011;6222;50.866;6.744;2022-09-11T08:28:52;23.73;;;16.10;;
12316;SDS011;6222;50.866;6.744;2022-09-11T08:31:21;24.05;;;16.98;;
12316;SDS011;6222;50.866;6.744;2022-09-11T08:33:49;23.92;;;16.08;;
12316;SDS011;6222;50.866;6.744;2022-09-11T08:36:18;23.00;;;15.30;;
12316;SDS011;6222;50.866;6.744;2022-09-11T08:38:45;23.17;;;15.93;;
12316;SDS011;6222;50.866;6.744;2022-09-11T08:41:17;20.02;;;14.57;;
12316;SDS011;6222;50.866;6.744;2022-09-11T08:43:48;21.73;;;15.65;;
12316;SDS011;6222;50.866;6.744;2022-09-11T08:46:17;21.70;;;15.07;;
12316;SDS011;6222;50.866;6.744;2022-09-11T08:48:46;22.80;;;14.90;;
12316;SDS011;6222;50.866;6.744;2022-09-11T08:51:16;23.70;;;15.40;;
12316;SDS011;6222;50.866;6.744;2022-09-11T08:53:44;20.45;;;14.48;;
12316;SDS011;6222;50.866;6.744;2022-09-11T08:56:13;21.57;;;14.97;;
12316;SDS011;6222;50.866;6.744;2022-09-11T08:58:44;22.45;;;15.00;;
12316;SDS011;6222;50.866;6.744;2022-09-11T09:01:15;25.08;;;16.58;;
12316;SDS011;6222;50.866;6.744;2022-09-11T09:03:48;20.33;;;13.88;;
12316;SDS011;6222;50.866;6.744;2022-09-11T09:09:02;18.20;;;13.43;;
12316;SDS011;6222;50.866;6.744;2022-09-11T09:11:35;20.15;;;13.98;;
12316;SDS011;6222;50.866;6.744;2022-09-11T09:14:09;20.23;;;14.15;;
12316;SDS011;6222;50.866;6.744;2022-09-11T09:16:42;19.98;;;13.55;;
12316;SDS011;6222;50.866;6.744;2022-09-11T09:19:11;21.00;;;13.77;;
12316;SDS011;6222;50.866;6.744;2022-09-11T09:21:41;18.98;;;13.68;;
12316;SDS011;6222;50.866;6.744;2022-09-11T09:24:11;20.45;;;13.43;;
12316;SDS011;6222;50.866;6.744;2022-09-11T09:26:43;19.08;;;13.90;;
12316;SDS011;6222;50.866;6.744;2022-09-11T09:29:13;19.80;;;13.10;;
12316;SDS011;6222;50.866;6.744;2022-09-11T09:31:41;20.73;;;14.40;;
12316;SDS011;6222;50.866;6.744;2022-09-11T09:34:12;19.52;;;13.68;;
12316;SDS011;6222;50.866;6.744;2022-09-11T09:36:44;20.52;;;14.15;;
12316;SDS011;6222;50.866;6.744;2022-09-11T09:39:13;20.50;;;13.77;;
12316;SDS011;6222;50.866;6.744;2022-09-11T09:44:34;21.33;;;14.73;;
12316;SDS011;6222;50.866;6.744;2022-09-11T09:47:03;23.05;;;15.13;;
12316;SDS011;6222;50.866;6.744;2022-09-11T09:49:32;19.33;;;13.60;;
12316;SDS011;6222;50.866;6.744;2022-09-11T09:52:00;20.27;;;14.40;;
12316;SDS011;6222;50.866;6.744;2022-09-11T09:54:31;19.38;;;13.60;;
12316;SDS011;6222;50.866;6.744;2022-09-11T09:57:00;21.10;;;14.40;;
12316;SDS011;6222;50.866;6.744;2022-09-11T09:59:29;17.80;;;13.38;;
12316;SDS011;6222;50.866;6.744;2022-09-11T10:01:58;19.63;;;13.40;;
12316;SDS011;6222;50.866;6.744;2022-09-11T10:04:26;19.48;;;13.55;;
12316;SDS011;6222;50.866;6.744;2022-09-11T10:07:03;20.63;;;13.65;;
12316;SDS011;6222;50.866;6.744;2022-09-11T10:09:33;17.67;;;12.85;;
12316;SDS011;6222;50.866;6.744;2022-09-11T10:12:00;18.42;;;13.05;;
12316;SDS011;6222;50.866;6.744;2022-09-11T10:14:30;17.30;;;12.63;;
12316;SDS011;6222;50.866;6.744;2022-09-11T10:16:58;19.05;;;12.30;;
12316;SDS011;6222;50.866;6.744;2022-09-11T10:19:33;15.88;;;11.45;;
12316;SDS011;6222;50.866;6.744;2022-09-11T10:22:13;16.17;;;11.65;;
12316;SDS011;6222;50.866;6.744;2022-09-11T10:24:54;14.35;;;10.32;;
12316;SDS011;6222;50.866;6.744;2022-09-11T10:27:25;14.63;;;10.17;;
12316;SDS011;6222;50.866;6.744;2022-09-11T10:29:53;13.80;;;10.35;;
12316;SDS011;6222;50.866;6.744;2022-09-11T10:32:20;18.33;;;12.37;;
12316;SDS011;6222;50.866;6.744;2022-09-11T10:34:48;17.75;;;12.35;;
12316;SDS011;6222;50.866;6.744;2022-09-11T10:37:20;17.05;;;11.65;;
12316;SDS011;6222;50.866;6.744;2022-09-11T10:39:49;18.27;;;12.38;;
12316;SDS011;6222;50.866;6.744;2022-09-11T10:42:18;16.97;;;12.23;;
12316;SDS011;6222;50.866;6.744;2022-09-11T10:44:47;17.90;;;12.40;;
12316;SDS011;6222;50.866;6.744;2022-09-11T10:47:15;17.27;;;12.65;;
12316;SDS011;6222;50.866;6.744;2022-09-11T10:49:43;14.55;;;11.43;;
12316;SDS011;6222;50.866;6.744;2022-09-11T10:52:16;15.75;;;11.18;;
12316;SDS011;6222;50.866;6.744;2022-09-11T10:54:47;17.10;;;11.67;;
12316;SDS011;6222;50.866;6.744;2022-09-11T10:57:20;17.77;;;12.55;;
12316;SDS011;6222;50.866;6.744;2022-09-11T10:59:52;15.65;;;12.07;;
12316;SDS011;6222;50.866;6.744;2022-09-11T11:02:27;16.17;;;12.13;;
12316;SDS011;6222;50.866;6.744;2022-09-11T11:04:55;18.10;;;11.93;;
12316;SDS011;6222;50.866;6.744;2022-09-11T11:07:30;15.17;;;11.40;;
12316;SDS011;6222;50.866;6.744;2022-09-11T11:10:02;14.48;;;10.63;;
12316;SDS011;6222;50.866;6.744;2022-09-11T11:12:35;14.55;;;10.43;;
12316;SDS011;6222;50.866;6.744;2022-09-11T11:15:15;15.85;;;10.23;;
12316;SDS011;6222;50.866;6.744;2022-09-11T11:17:48;14.02;;;10.27;;
12316;SDS011;6222;50.866;6.744;2022-09-11T11:20:21;13.70;;;10.50;;
12316;SDS011;6222;50.866;6.744;2022-09-11T11:23:07;13.53;;;10.93;;
12316;SDS011;6222;50.866;6.744;2022-09-11T11:25:38;15.27;;;11.45;;
12316;SDS011;6222;50.866;6.744;2022-09-11T11:28:18;14.90;;;10.47;;
12316;SDS011;6222;50.866;6.744;2022-09-11T11:30:49;14.70;;;10.57;;
12316;SDS011;6222;50.866;6.744;2022-09-11T11:33:29;13.27;;;10.00;;
12316;SDS011;6222;50.866;6.744;2022-09-11T11:36:01;12.60;;;9.52;;
12316;SDS011;6222;50.866;6.744;2022-09-11T11:38:30;12.82;;;9.38;;
12316;SDS011;6222;50.866;6.744;2022-09-11T11:41:02;12.52;;;9.05;;
12316;SDS011;6222;50.866;6.744;2022-09-11T11:43:34;11.05;;;8.45;;
12316;SDS011;6222;50.866;6.744;2022-09-11T11:46:07;11.30;;;8.35;;
12316;SDS011;6222;50.866;6.744;2022-09-11T11:48:35;12.57;;;9.25;;
12316;SDS011;6222;50.866;6.744;2022-09-11T11:51:05;13.20;;;10.05;;
12316;SDS011;6222;50.866;6.744;2022-09-11T11:53:33;12.73;;;8.63;;
12316;SDS011;6222;50.866;6.744;2022-09-11T11:56:05;10.85;;;8.57;;
12316;SDS011;6222;50.866;6.744;2022-09-11T11:58:46;11.65;;;9.20;;
12316;SDS011;6222;50.866;6.744;2022-09-11T12:01:16;10.45;;;7.90;;
12316;SDS011;6222;50.866;6.744;2022-09-11T12:03:46;10.27;;;8.27;;
12316;SDS011;6222;50.866;6.744;2022-09-11T12:06:14;11.70;;;8.82;;
12316;SDS011;6222;50.866;6.744;2022-09-11T12:08:41;10.95;;;9.27;;
12316;SDS011;6222;50.866;6.744;2022-09-11T12:11:09;10.95;;;8.75;;
12316;SDS011;6222;50.866;6.744;2022-09-11T12:13:40;11.63;;;8.52;;
12316;SDS011;6222;50.866;6.744;2022-09-11T12:16:14;12.68;;;9.30;;
12316;SDS011;6222;50.866;6.744;2022-09-11T12:18:41;10.53;;;8.63;;
12316;SDS011;6222;50.866;6.744;2022-09-11T12:21:35;10.88;;;7.90;;
12316;SDS011;6222;50.866;6.744;2022-09-11T12:24:16;10.05;;;7.47;;
12316;SDS011;6222;50.866;6.744;2022-09-11T12:26:43;10.20;;;7.70;;
12316;SDS011;6222;50.866;6.744;2022-09-11T12:32:18;12.75;;;9.15;;
12316;SDS011;6222;50.866;6.744;2022-09-11T12:34:56;11.57;;;8.27;;
12316;SDS011;6222;50.866;6.744;2022-09-11T12:37:25;10.40;;;7.70;;
12316;SDS011;6222;50.866;6.744;2022-09-11T12:39:59;10.45;;;7.93;;
12316;SDS011;6222;50.866;6.744;2022-09-11T12:42:44;9.40;;;8.00;;
12316;SDS011;6222;50.866;6.744;2022-09-11T12:47:56;9.67;;;6.83;;
12316;SDS011;6222;50.866;6.744;2022-09-11T12:50:28;7.18;;;6.05;;
12316;SDS011;6222;50.866;6.744;2022-09-11T12:52:55;9.23;;;6.60;;
12316;SDS011;6222;50.866;6.744;2022-09-11T12:55:33;9.13;;;7.07;;
12316;SDS011;6222;50.866;6.744;2022-09-11T12:58:04;10.38;;;7.20;;
12316;SDS011;6222;50.866;6.744;2022-09-11T13:00:33;10.60;;;7.57;;
12316;SDS011;6222;50.866;6.744;2022-09-11T13:03:02;9.20;;;6.93;;
12316;SDS011;6222;50.866;6.744;2022-09-11T13:05:31;8.82;;;6.88;;
12316;SDS011;6222;50.866;6.744;2022-09-11T13:08:00;7.70;;;6.53;;
12316;SDS011;6222;50.866;6.744;2022-09-11T13:10:30;7.90;;;5.82;;
12316;SDS011;6222;50.866;6.744;2022-09-11T13:13:00;5.97;;;5.33;;
12316;SDS011;6222;50.866;6.744;2022-09-11T13:15:34;7.30;;;6.23;;
12316;SDS011;6222;50.866;6.744;2022-09-11T13:18:18;7.43;;;5.83;;
12316;SDS011;6222;50.866;6.744;2022-09-11T13:20:54;8.13;;;5.72;;
12316;SDS011;6222;50.866;6.744;2022-09-11T13:23:23;7.85;;;6.07;;
12316;SDS011;6222;50.866;6.744;2022-09-11T13:25:50;6.05;;;5.20;;
12316;SDS011;6222;50.866;6.744;2022-09-11T13:28:19;5.72;;;4.80;;
12316;SDS011;6222;50.866;6.744;2022-09-11T13:30:47;5.50;;;4.88;;
12316;SDS011;6222;50.866;6.744;2022-09-11T13:33:20;5.75;;;5.15;;
12316;SDS011;6222;50.866;6.744;2022-09-11T13:35:49;6.13;;;5.25;;
12316;SDS011;6222;50.866;6.744;2022-09-11T13:38:19;5.20;;;4.40;;
12316;SDS011;6222;50.866;6.744;2022-09-11T13:40:48;5.70;;;4.78;;
12316;SDS011;6222;50.866;6.744;2022-09-11T13:43:19;5.80;;;4.45;;
12316;SDS011;6222;50.866;6.744;2022-09-11T13:45:47;5.40;;;4.60;;
12316;SDS011;6222;50.866;6.744;2022-09-11T13:48:20;5.65;;;4.22;;
12316;SDS011;6222;50.866;6.744;2022-09-11T13:50:47;4.90;;;4.40;;
12316;SDS011;6222;50.866;6.744;2022-09-11T13:53:15;5.47;;;4.60;;
12316;SDS011;6222;50.866;6.744;2022-09-11T13:55:44;5.30;;;4.40;;
12316;SDS011;6222;50.866;6.744;2022-09-11T13:58:18;4.88;;;4.38;;
12316;SDS011;6222;50.866;6.744;2022-09-11T14:00:46;4.95;;;4.38;;
12316;SDS011;6222;50.866;6.744;2022-09-11T14:03:16;4.33;;;3.80;;
12316;SDS011;6222;50.866;6.744;2022-09-11T14:05:50;5.60;;;4.03;;
12316;SDS011;6222;50.866;6.744;2022-09-11T14:08:20;4.07;;;3.67;;
12316;SDS011;6222;50.866;6.744;2022-09-11T14:10:48;3.60;;;3.30;;
12316;SDS011;6222;50.866;6.744;2022-09-11T14:13:18;5.25;;;3.35;;
12316;SDS011;6222;50.866;6.744;2022-09-11T14:15:47;5.20;;;3.95;;
12316;SDS011;6222;50.866;6.744;2022-09-11T14:18:22;6.70;;;4.00;;
12316;SDS011;6222;50.866;6.744;2022-09-11T14:20:51;4.88;;;3.85;;
12316;SDS011;6222;50.866;6.744;2022-09-11T14:23:21;5.75;;;3.92;;
12316;SDS011;6222;50.866;6.744;2022-09-11T14:26:02;4.63;;;4.20;;
12316;SDS011;6222;50.866;6.744;2022-09-11T14:28:34;4.20;;;3.73;;
12316;SDS011;6222;50.866;6.744;2022-09-11T14:31:04;5.47;;;3.78;;
12316;SDS011;6222;50.866;6.744;2022-09-11T14:33:32;4.15;;;3.55;;
12316;SDS011;6222;50.866;6.744;2022-09-11T14:36:01;5.43;;;3.50;;
12316;SDS011;6222;50.866;6.744;2022-09-11T14:38:29;4.65;;;3.42;;
12316;SDS011;6222;50.866;6.744;2022-09-11T14:40:57;4.13;;;3.35;;
12316;SDS011;6222;50.866;6.744;2022-09-11T14:43:26;3.67;;;3.33;;
12316;SDS011;6222;50.866;6.744;2022-09-11T14:45:55;5.00;;;4.50;;
12316;SDS011;6222;50.866;6.744;2022-09-11T14:48:23;4.68;;;3.47;;
12316;SDS011;6222;50.866;6.744;2022-09-11T14:50:50;5.03;;;3.85;;
12316;SDS011;6222;50.866;6.744;2022-09-11T14:53:20;4.07;;;3.53;;
12316;SDS011;6222;50.866;6.744;2022-09-11T14:55:48;4.13;;;3.43;;
12316;SDS011;6222;50.866;6.744;2022-09-11T14:58:16;4.50;;;3.53;;
12316;SDS011;6222;50.866;6.744;2022-09-11T15:00:45;4.95;;;3.63;;
12316;SDS011;6222;50.866;6.744;2022-09-11T15:03:12;4.00;;;3.50;;
12316;SDS011;6222;50.866;6.744;2022-09-11T15:05:39;4.53;;;3.20;;